Aylmer, North Dakota
Current Conditions -  °F | °C
As of 11:55 AM on Sunday 21 Dec 2014 (Local Time) from K5H4 Reporting Station
Few Clouds Few Clouds  
Wind Chill: -6°   Ceiling: Unl
Heat Index: -2°   Visibility: 10mi
Dew Point: -2°   Wind: 7mph
Humidity: 100%   Direction: 120°ESE
Pressure: 29.53"   Gusts: NA
Location:  47.8487°N, 100.262°W
Report Text: K5H4 211755Z AUTO 12006KT 10SM FEW090 M02/M02 A2953 RMK AO2
Loading
Personal Weather Stations






























Interactive Weather Map New forecast layout! Learn more

10-Day Weather Forecast

Advertisements
Track Severe Weather on mobile